Charter Quote
Worldwide +1-877-727-2538 Call
Select Language Lang
SAFETY RELIABILITY EXPERIENCE

Dubendorf Airport (LSMD) - Jet Charter Services

AIRPORT INFORMATION
ICAOLSMD
LOCATIONDubendorf, Switzerland
FACILITY TYPEAIRPORT
Runway Length (ft) Width (ft) Surface Type Elevation (ft)
29/11 7726 130 ASP 1469.04918
29L/11R 2130 98 GRS 1469.04918

At Paramount Business Jets you can hire chartered private jets to and from Dubendorf Airport with as little as 4 hours of notice. All flights booked via Paramount Business Jets are operated by certified direct air carriers that meet and exceed the FAA part 135 and 121 protocol or a foreign equivalent safety authority. Furthermore, Paramount Business Jets subscribes to ARGUS for their third party safety checks of operators, aircraft, and crews prior each and every flight to and from Dubendorf Airport and worldwide.

  • Quote a trip using Dubendorf Airport or call us 24/7 - 365 days a year at +1-877-727-2538.
Questions? Call +1-877-727-2538

METAR Weather Data at Dubendorf Airport, LSMD

STATIONLSMD
OBSERVEDWed Jan 23, 21:20 UTC
NOWWed Jan 23, 21:49 UTC
AGE29 min ago
WINDvaries at 1 mph
METARLSMD 232120Z AUTO VRB01KT 7000NDV OVC022 M02/M04 Q0999 RMK

Call us on +1-877-727-2538 (24 Hours) to Hire a Private Jet or Get a Quick Quote.

Find Airports Near any Location

Processing
...